Almond, Wisconsin
Current Conditions -  °F | °C
As of 9:56 PM on Tuesday 25 Nov 2014 (Local Time) from KY50 Reporting Station
Clear Clear  
Wind Chill:   Ceiling: Unl
Heat Index:   Visibility: 10mi
Dew Point:   Wind: 0mph
Humidity: 84%   Direction: NA
Pressure: 30.13"   Gusts: NA
Location:  44.26°N, 89.41°W
Report Text: KY50 260356Z AUTO 00000KT 10SM CLR M15/M17 A3013 RMK AO2 TSNO T11501172 SLP218
Loading
Personal Weather Stations






























Interactive Weather Map New forecast layout! Learn more

10-Day Weather Forecast

Advertisements
Track Severe Weather on mobile